sensor_id;sensor_type;location;lat;lon;timestamp;P1;durP1;ratioP1;P2;durP2;ratioP2
261;SDS011;114;48.260;10.988;2024-02-23T00:01:20;0.40;;;0.30;;
261;SDS011;114;48.260;10.988;2024-02-23T00:03:46;0.30;;;0.20;;
261;SDS011;114;48.260;10.988;2024-02-23T00:06:12;0.30;;;0.20;;
261;SDS011;114;48.260;10.988;2024-02-23T00:08:39;0.30;;;0.20;;
261;SDS011;114;48.260;10.988;2024-02-23T00:11:06;4.83;;;0.40;;
261;SDS011;114;48.260;10.988;2024-02-23T00:13:33;0.37;;;0.20;;
261;SDS011;114;48.260;10.988;2024-02-23T00:16:01;0.30;;;0.27;;
261;SDS011;114;48.260;10.988;2024-02-23T00:18:27;1.87;;;0.23;;
261;SDS011;114;48.260;10.988;2024-02-23T00:20:53;1.50;;;0.30;;
261;SDS011;114;48.260;10.988;2024-02-23T00:23:20;0.30;;;0.20;;
261;SDS011;114;48.260;10.988;2024-02-23T00:25:45;0.40;;;0.20;;
261;SDS011;114;48.260;10.988;2024-02-23T00:28:17;0.90;;;0.30;;
261;SDS011;114;48.260;10.988;2024-02-23T00:30:44;0.90;;;0.27;;
261;SDS011;114;48.260;10.988;2024-02-23T00:33:09;0.30;;;0.20;;
261;SDS011;114;48.260;10.988;2024-02-23T00:35:36;0.30;;;0.20;;
261;SDS011;114;48.260;10.988;2024-02-23T00:38:02;0.50;;;0.27;;
261;SDS011;114;48.260;10.988;2024-02-23T00:40:29;0.30;;;0.27;;
261;SDS011;114;48.260;10.988;2024-02-23T00:42:56;0.30;;;0.20;;
261;SDS011;114;48.260;10.988;2024-02-23T00:45:22;0.30;;;0.20;;
261;SDS011;114;48.260;10.988;2024-02-23T00:47:48;3.73;;;0.27;;
261;SDS011;114;48.260;10.988;2024-02-23T00:50:15;0.33;;;0.30;;
261;SDS011;114;48.260;10.988;2024-02-23T00:52:43;0.70;;;0.30;;
261;SDS011;114;48.260;10.988;2024-02-23T00:55:09;0.47;;;0.30;;
261;SDS011;114;48.260;10.988;2024-02-23T00:57:35;0.67;;;0.20;;
261;SDS011;114;48.260;10.988;2024-02-23T01:00:03;0.30;;;0.20;;
261;SDS011;114;48.260;10.988;2024-02-23T01:02:34;0.30;;;0.20;;
261;SDS011;114;48.260;10.988;2024-02-23T01:05:00;0.40;;;0.20;;
261;SDS011;114;48.260;10.988;2024-02-23T01:07:27;0.53;;;0.30;;
261;SDS011;114;48.260;10.988;2024-02-23T01:09:53;0.20;;;0.20;;
261;SDS011;114;48.260;10.988;2024-02-23T01:12:18;0.60;;;0.30;;
261;SDS011;114;48.260;10.988;2024-02-23T01:14:46;0.40;;;0.30;;
261;SDS011;114;48.260;10.988;2024-02-23T01:17:13;0.30;;;0.20;;
261;SDS011;114;48.260;10.988;2024-02-23T01:19:42;0.80;;;0.23;;
261;SDS011;114;48.260;10.988;2024-02-23T01:22:09;0.23;;;0.20;;
261;SDS011;114;48.260;10.988;2024-02-23T01:24:36;0.30;;;0.30;;
261;SDS011;114;48.260;10.988;2024-02-23T01:27:01;0.30;;;0.20;;
261;SDS011;114;48.260;10.988;2024-02-23T01:29:27;0.30;;;0.20;;
261;SDS011;114;48.260;10.988;2024-02-23T01:31:53;0.30;;;0.20;;
261;SDS011;114;48.260;10.988;2024-02-23T01:34:21;3.03;;;0.30;;
261;SDS011;114;48.260;10.988;2024-02-23T01:36:47;0.40;;;0.20;;
261;SDS011;114;48.260;10.988;2024-02-23T01:39:13;1.60;;;0.20;;
261;SDS011;114;48.260;10.988;2024-02-23T01:41:39;0.57;;;0.20;;
261;SDS011;114;48.260;10.988;2024-02-23T01:44:07;0.20;;;0.17;;
261;SDS011;114;48.260;10.988;2024-02-23T01:46:33;0.30;;;0.20;;
261;SDS011;114;48.260;10.988;2024-02-23T01:49:00;0.30;;;0.20;;
261;SDS011;114;48.260;10.988;2024-02-23T01:51:26;0.70;;;0.30;;
261;SDS011;114;48.260;10.988;2024-02-23T01:53:52;0.90;;;0.20;;
261;SDS011;114;48.260;10.988;2024-02-23T01:56:17;0.50;;;0.20;;
261;SDS011;114;48.260;10.988;2024-02-23T01:58:45;0.20;;;0.20;;
261;SDS011;114;48.260;10.988;2024-02-23T02:01:12;0.97;;;0.30;;
261;SDS011;114;48.260;10.988;2024-02-23T02:03:38;0.40;;;0.20;;
261;SDS011;114;48.260;10.988;2024-02-23T02:06:05;0.30;;;0.27;;
261;SDS011;114;48.260;10.988;2024-02-23T02:08:38;1.93;;;0.20;;
261;SDS011;114;48.260;10.988;2024-02-23T02:11:05;0.20;;;0.20;;
261;SDS011;114;48.260;10.988;2024-02-23T02:13:31;0.30;;;0.30;;
261;SDS011;114;48.260;10.988;2024-02-23T02:16:00;1.37;;;0.50;;
261;SDS011;114;48.260;10.988;2024-02-23T02:18:27;0.60;;;0.20;;
261;SDS011;114;48.260;10.988;2024-02-23T02:20:56;0.20;;;0.10;;
261;SDS011;114;48.260;10.988;2024-02-23T02:23:23;0.87;;;0.20;;
261;SDS011;114;48.260;10.988;2024-02-23T02:25:55;0.20;;;0.20;;
261;SDS011;114;48.260;10.988;2024-02-23T02:28:22;0.30;;;0.20;;
261;SDS011;114;48.260;10.988;2024-02-23T02:30:50;0.30;;;0.20;;
261;SDS011;114;48.260;10.988;2024-02-23T02:33:20;1.03;;;0.20;;
261;SDS011;114;48.260;10.988;2024-02-23T02:35:46;0.30;;;0.20;;
261;SDS011;114;48.260;10.988;2024-02-23T02:38:12;0.40;;;0.20;;
261;SDS011;114;48.260;10.988;2024-02-23T02:40:39;0.40;;;0.20;;
261;SDS011;114;48.260;10.988;2024-02-23T02:43:04;0.30;;;0.20;;
261;SDS011;114;48.260;10.988;2024-02-23T02:45:31;0.30;;;0.20;;
261;SDS011;114;48.260;10.988;2024-02-23T02:47:56;0.30;;;0.30;;
261;SDS011;114;48.260;10.988;2024-02-23T02:50:23;2.73;;;0.20;;
261;SDS011;114;48.260;10.988;2024-02-23T02:52:55;0.30;;;0.20;;
261;SDS011;114;48.260;10.988;2024-02-23T02:55:20;0.30;;;0.20;;
261;SDS011;114;48.260;10.988;2024-02-23T02:57:46;0.30;;;0.20;;
261;SDS011;114;48.260;10.988;2024-02-23T03:00:13;0.30;;;0.23;;
261;SDS011;114;48.260;10.988;2024-02-23T03:02:39;0.60;;;0.20;;
261;SDS011;114;48.260;10.988;2024-02-23T03:05:06;0.20;;;0.20;;
261;SDS011;114;48.260;10.988;2024-02-23T03:07:32;0.20;;;0.20;;
261;SDS011;114;48.260;10.988;2024-02-23T03:09:57;0.30;;;0.20;;
261;SDS011;114;48.260;10.988;2024-02-23T03:12:23;0.27;;;0.20;;
261;SDS011;114;48.260;10.988;2024-02-23T03:14:49;0.20;;;0.20;;
261;SDS011;114;48.260;10.988;2024-02-23T03:17:15;0.83;;;0.20;;
261;SDS011;114;48.260;10.988;2024-02-23T03:19:41;0.30;;;0.20;;
261;SDS011;114;48.260;10.988;2024-02-23T03:22:07;0.40;;;0.30;;
261;SDS011;114;48.260;10.988;2024-02-23T03:24:33;0.70;;;0.30;;
261;SDS011;114;48.260;10.988;2024-02-23T03:26:59;0.30;;;0.20;;
261;SDS011;114;48.260;10.988;2024-02-23T03:29:26;0.20;;;0.20;;
261;SDS011;114;48.260;10.988;2024-02-23T03:31:54;0.30;;;0.20;;
261;SDS011;114;48.260;10.988;2024-02-23T03:34:21;0.40;;;0.30;;
261;SDS011;114;48.260;10.988;2024-02-23T03:36:47;0.37;;;0.30;;
261;SDS011;114;48.260;10.988;2024-02-23T03:39:12;0.30;;;0.20;;
261;SDS011;114;48.260;10.988;2024-02-23T03:41:38;0.50;;;0.20;;
261;SDS011;114;48.260;10.988;2024-02-23T03:44:04;1.13;;;0.23;;
261;SDS011;114;48.260;10.988;2024-02-23T03:46:30;1.13;;;0.20;;
261;SDS011;114;48.260;10.988;2024-02-23T03:48:56;0.60;;;0.20;;
261;SDS011;114;48.260;10.988;2024-02-23T03:51:24;0.20;;;0.20;;
261;SDS011;114;48.260;10.988;2024-02-23T03:53:49;0.30;;;0.20;;
261;SDS011;114;48.260;10.988;2024-02-23T03:56:15;0.73;;;0.20;;
261;SDS011;114;48.260;10.988;2024-02-23T03:58:42;0.30;;;0.20;;
261;SDS011;114;48.260;10.988;2024-02-23T04:01:08;0.30;;;0.20;;
261;SDS011;114;48.260;10.988;2024-02-23T04:03:35;0.30;;;0.20;;
261;SDS011;114;48.260;10.988;2024-02-23T04:06:01;1.07;;;0.20;;
261;SDS011;114;48.260;10.988;2024-02-23T04:08:26;0.20;;;0.20;;
261;SDS011;114;48.260;10.988;2024-02-23T04:10:53;0.20;;;0.20;;
261;SDS011;114;48.260;10.988;2024-02-23T04:13:20;0.30;;;0.20;;
261;SDS011;114;48.260;10.988;2024-02-23T04:15:46;0.30;;;0.20;;
261;SDS011;114;48.260;10.988;2024-02-23T04:18:12;0.20;;;0.20;;
261;SDS011;114;48.260;10.988;2024-02-23T04:20:37;0.77;;;0.20;;
261;SDS011;114;48.260;10.988;2024-02-23T04:23:03;3.27;;;0.33;;
261;SDS011;114;48.260;10.988;2024-02-23T04:25:29;0.20;;;0.20;;
261;SDS011;114;48.260;10.988;2024-02-23T04:27:55;0.30;;;0.20;;
261;SDS011;114;48.260;10.988;2024-02-23T04:30:22;0.30;;;0.20;;
261;SDS011;114;48.260;10.988;2024-02-23T04:32:49;0.30;;;0.20;;
261;SDS011;114;48.260;10.988;2024-02-23T04:35:14;0.30;;;0.20;;
261;SDS011;114;48.260;10.988;2024-02-23T04:37:42;0.30;;;0.20;;
261;SDS011;114;48.260;10.988;2024-02-23T04:40:10;0.30;;;0.30;;
261;SDS011;114;48.260;10.988;2024-02-23T04:42:36;0.30;;;0.20;;
261;SDS011;114;48.260;10.988;2024-02-23T04:45:03;0.30;;;0.20;;
261;SDS011;114;48.260;10.988;2024-02-23T04:47:29;0.30;;;0.23;;
261;SDS011;114;48.260;10.988;2024-02-23T04:49:55;0.47;;;0.20;;
261;SDS011;114;48.260;10.988;2024-02-23T04:52:21;0.47;;;0.47;;
261;SDS011;114;48.260;10.988;2024-02-23T04:54:46;0.40;;;0.20;;
261;SDS011;114;48.260;10.988;2024-02-23T04:57:14;0.33;;;0.20;;
261;SDS011;114;48.260;10.988;2024-02-23T04:59:41;0.40;;;0.30;;
261;SDS011;114;48.260;10.988;2024-02-23T05:02:07;0.57;;;0.40;;
261;SDS011;114;48.260;10.988;2024-02-23T05:04:35;0.30;;;0.30;;
261;SDS011;114;48.260;10.988;2024-02-23T05:07:01;0.27;;;0.20;;
261;SDS011;114;48.260;10.988;2024-02-23T05:09:30;0.40;;;0.30;;
261;SDS011;114;48.260;10.988;2024-02-23T05:11:56;0.30;;;0.20;;
261;SDS011;114;48.260;10.988;2024-02-23T05:14:22;0.40;;;0.30;;
261;SDS011;114;48.260;10.988;2024-02-23T05:16:48;0.57;;;0.20;;
261;SDS011;114;48.260;10.988;2024-02-23T05:19:13;0.50;;;0.30;;
261;SDS011;114;48.260;10.988;2024-02-23T05:21:39;0.97;;;0.30;;
261;SDS011;114;48.260;10.988;2024-02-23T05:24:04;0.30;;;0.30;;
261;SDS011;114;48.260;10.988;2024-02-23T05:26:31;0.30;;;0.20;;
261;SDS011;114;48.260;10.988;2024-02-23T05:28:57;0.30;;;0.20;;
261;SDS011;114;48.260;10.988;2024-02-23T05:34:11;0.50;;;0.30;;
261;SDS011;114;48.260;10.988;2024-02-23T05:36:37;1.53;;;0.63;;
261;SDS011;114;48.260;10.988;2024-02-23T05:41:34;0.40;;;0.40;;
261;SDS011;114;48.260;10.988;2024-02-23T05:44:01;0.30;;;0.30;;
261;SDS011;114;48.260;10.988;2024-02-23T05:46:30;0.50;;;0.30;;
261;SDS011;114;48.260;10.988;2024-02-23T05:49:00;0.30;;;0.30;;
261;SDS011;114;48.260;10.988;2024-02-23T05:51:27;0.60;;;0.40;;
261;SDS011;114;48.260;10.988;2024-02-23T05:53:54;0.30;;;0.20;;
261;SDS011;114;48.260;10.988;2024-02-23T05:56:20;0.30;;;0.30;;
261;SDS011;114;48.260;10.988;2024-02-23T05:58:47;0.30;;;0.27;;
261;SDS011;114;48.260;10.988;2024-02-23T06:01:13;0.30;;;0.20;;
261;SDS011;114;48.260;10.988;2024-02-23T06:03:40;0.30;;;0.20;;
261;SDS011;114;48.260;10.988;2024-02-23T06:08:37;0.20;;;0.20;;
261;SDS011;114;48.260;10.988;2024-02-23T06:11:03;0.30;;;0.20;;
261;SDS011;114;48.260;10.988;2024-02-23T06:13:29;0.30;;;0.30;;
261;SDS011;114;48.260;10.988;2024-02-23T06:15:56;0.40;;;0.30;;
261;SDS011;114;48.260;10.988;2024-02-23T06:18:23;0.97;;;0.30;;
261;SDS011;114;48.260;10.988;2024-02-23T06:20:49;0.30;;;0.27;;
261;SDS011;114;48.260;10.988;2024-02-23T06:23:21;0.40;;;0.30;;
261;SDS011;114;48.260;10.988;2024-02-23T06:25:47;0.57;;;0.47;;
261;SDS011;114;48.260;10.988;2024-02-23T06:28:13;0.40;;;0.30;;
261;SDS011;114;48.260;10.988;2024-02-23T06:30:38;7.00;;;0.40;;
261;SDS011;114;48.260;10.988;2024-02-23T06:33:05;0.40;;;0.20;;
261;SDS011;114;48.260;10.988;2024-02-23T06:35:31;0.20;;;0.20;;
261;SDS011;114;48.260;10.988;2024-02-23T06:37:59;0.80;;;0.30;;
261;SDS011;114;48.260;10.988;2024-02-23T06:40:24;2.83;;;0.30;;
261;SDS011;114;48.260;10.988;2024-02-23T06:42:52;0.30;;;0.30;;
261;SDS011;114;48.260;10.988;2024-02-23T06:45:18;0.30;;;0.20;;
261;SDS011;114;48.260;10.988;2024-02-23T06:47:44;1.67;;;0.30;;
261;SDS011;114;48.260;10.988;2024-02-23T06:50:10;0.30;;;0.30;;
261;SDS011;114;48.260;10.988;2024-02-23T06:52:36;0.20;;;0.20;;
261;SDS011;114;48.260;10.988;2024-02-23T06:55:03;0.30;;;0.20;;
261;SDS011;114;48.260;10.988;2024-02-23T06:57:30;0.53;;;0.30;;
261;SDS011;114;48.260;10.988;2024-02-23T07:02:33;1.20;;;0.40;;
261;SDS011;114;48.260;10.988;2024-02-23T07:05:01;4.33;;;0.50;;
261;SDS011;114;48.260;10.988;2024-02-23T07:07:31;0.80;;;0.30;;
261;SDS011;114;48.260;10.988;2024-02-23T07:09:58;0.83;;;0.30;;
261;SDS011;114;48.260;10.988;2024-02-23T07:12:25;0.63;;;0.40;;
261;SDS011;114;48.260;10.988;2024-02-23T07:14:53;0.57;;;0.30;;
261;SDS011;114;48.260;10.988;2024-02-23T07:17:18;0.90;;;0.30;;
261;SDS011;114;48.260;10.988;2024-02-23T07:19:45;2.03;;;0.37;;
261;SDS011;114;48.260;10.988;2024-02-23T07:22:11;0.33;;;0.30;;
261;SDS011;114;48.260;10.988;2024-02-23T07:24:39;1.33;;;0.40;;
261;SDS011;114;48.260;10.988;2024-02-23T07:27:06;0.93;;;0.30;;
261;SDS011;114;48.260;10.988;2024-02-23T07:29:31;0.40;;;0.30;;
261;SDS011;114;48.260;10.988;2024-02-23T07:31:57;0.40;;;0.40;;
261;SDS011;114;48.260;10.988;2024-02-23T07:34:25;2.73;;;0.60;;
261;SDS011;114;48.260;10.988;2024-02-23T07:36:53;0.80;;;0.50;;
261;SDS011;114;48.260;10.988;2024-02-23T07:39:20;0.60;;;0.40;;
261;SDS011;114;48.260;10.988;2024-02-23T07:41:46;0.40;;;0.40;;
261;SDS011;114;48.260;10.988;2024-02-23T07:44:13;3.23;;;0.53;;
261;SDS011;114;48.260;10.988;2024-02-23T07:46:38;0.90;;;0.50;;
261;SDS011;114;48.260;10.988;2024-02-23T07:49:04;0.60;;;0.30;;
261;SDS011;114;48.260;10.988;2024-02-23T07:51:34;2.07;;;0.40;;
261;SDS011;114;48.260;10.988;2024-02-23T07:54:01;0.90;;;0.60;;
261;SDS011;114;48.260;10.988;2024-02-23T07:56:26;4.57;;;0.50;;
261;SDS011;114;48.260;10.988;2024-02-23T07:58:53;0.80;;;0.50;;
261;SDS011;114;48.260;10.988;2024-02-23T08:01:19;0.77;;;0.40;;
261;SDS011;114;48.260;10.988;2024-02-23T08:03:46;0.80;;;0.70;;
261;SDS011;114;48.260;10.988;2024-02-23T08:06:11;0.97;;;0.53;;
261;SDS011;114;48.260;10.988;2024-02-23T08:08:38;0.90;;;0.67;;
261;SDS011;114;48.260;10.988;2024-02-23T08:11:04;1.93;;;0.60;;
261;SDS011;114;48.260;10.988;2024-02-23T08:13:32;1.17;;;0.50;;
261;SDS011;114;48.260;10.988;2024-02-23T08:15:57;0.83;;;0.50;;
261;SDS011;114;48.260;10.988;2024-02-23T08:18:24;2.50;;;0.40;;
261;SDS011;114;48.260;10.988;2024-02-23T08:20:51;0.83;;;0.50;;
261;SDS011;114;48.260;10.988;2024-02-23T08:23:17;1.07;;;0.50;;
261;SDS011;114;48.260;10.988;2024-02-23T08:25:44;2.07;;;0.40;;
261;SDS011;114;48.260;10.988;2024-02-23T08:28:10;2.10;;;0.50;;
261;SDS011;114;48.260;10.988;2024-02-23T08:30:36;2.00;;;0.67;;
261;SDS011;114;48.260;10.988;2024-02-23T08:33:02;1.53;;;0.40;;
261;SDS011;114;48.260;10.988;2024-02-23T08:35:27;1.10;;;0.50;;
261;SDS011;114;48.260;10.988;2024-02-23T08:37:54;0.77;;;0.50;;
261;SDS011;114;48.260;10.988;2024-02-23T08:40:20;3.40;;;0.50;;
261;SDS011;114;48.260;10.988;2024-02-23T08:42:46;1.70;;;0.50;;
261;SDS011;114;48.260;10.988;2024-02-23T08:45:12;2.10;;;0.70;;
261;SDS011;114;48.260;10.988;2024-02-23T08:47:39;4.07;;;0.50;;
261;SDS011;114;48.260;10.988;2024-02-23T08:50:06;0.53;;;0.53;;
261;SDS011;114;48.260;10.988;2024-02-23T08:52:32;0.93;;;0.53;;
261;SDS011;114;48.260;10.988;2024-02-23T08:54:59;5.10;;;0.50;;
261;SDS011;114;48.260;10.988;2024-02-23T08:57:27;5.00;;;0.63;;
261;SDS011;114;48.260;10.988;2024-02-23T08:59:53;2.93;;;1.00;;
261;SDS011;114;48.260;10.988;2024-02-23T09:02:19;0.87;;;0.70;;
261;SDS011;114;48.260;10.988;2024-02-23T09:04:45;4.07;;;0.90;;
261;SDS011;114;48.260;10.988;2024-02-23T09:07:11;1.80;;;1.00;;
261;SDS011;114;48.260;10.988;2024-02-23T09:09:37;0.90;;;0.50;;
261;SDS011;114;48.260;10.988;2024-02-23T09:12:03;2.70;;;0.80;;
261;SDS011;114;48.260;10.988;2024-02-23T09:14:31;4.80;;;0.77;;
261;SDS011;114;48.260;10.988;2024-02-23T09:16:58;1.77;;;0.60;;
261;SDS011;114;48.260;10.988;2024-02-23T09:19:30;1.60;;;0.50;;
261;SDS011;114;48.260;10.988;2024-02-23T09:21:55;2.30;;;0.50;;
261;SDS011;114;48.260;10.988;2024-02-23T09:24:21;2.00;;;0.47;;
261;SDS011;114;48.260;10.988;2024-02-23T09:26:48;2.93;;;1.20;;
261;SDS011;114;48.260;10.988;2024-02-23T09:29:14;2.90;;;0.97;;
261;SDS011;114;48.260;10.988;2024-02-23T09:31:40;0.57;;;0.50;;
261;SDS011;114;48.260;10.988;2024-02-23T09:34:05;2.30;;;0.40;;
261;SDS011;114;48.260;10.988;2024-02-23T09:36:32;0.60;;;0.60;;
261;SDS011;114;48.260;10.988;2024-02-23T09:38:58;2.43;;;0.60;;
261;SDS011;114;48.260;10.988;2024-02-23T09:41:24;3.50;;;0.50;;
261;SDS011;114;48.260;10.988;2024-02-23T09:43:50;2.67;;;0.80;;
261;SDS011;114;48.260;10.988;2024-02-23T09:46:17;6.00;;;0.80;;
261;SDS011;114;48.260;10.988;2024-02-23T09:48:44;2.47;;;0.40;;
261;SDS011;114;48.260;10.988;2024-02-23T09:51:11;0.80;;;0.50;;
261;SDS011;114;48.260;10.988;2024-02-23T09:53:38;3.30;;;0.50;;
261;SDS011;114;48.260;10.988;2024-02-23T09:56:04;1.40;;;0.53;;
261;SDS011;114;48.260;10.988;2024-02-23T09:58:31;3.03;;;0.53;;
261;SDS011;114;48.260;10.988;2024-02-23T10:00:58;1.37;;;0.47;;
261;SDS011;114;48.260;10.988;2024-02-23T10:03:27;2.20;;;0.60;;
261;SDS011;114;48.260;10.988;2024-02-23T10:05:56;2.87;;;0.47;;
261;SDS011;114;48.260;10.988;2024-02-23T10:08:22;1.47;;;0.53;;
261;SDS011;114;48.260;10.988;2024-02-23T10:10:49;1.77;;;0.50;;
261;SDS011;114;48.260;10.988;2024-02-23T10:13:19;1.97;;;0.40;;
261;SDS011;114;48.260;10.988;2024-02-23T10:15:49;0.90;;;0.80;;
261;SDS011;114;48.260;10.988;2024-02-23T10:18:15;0.53;;;0.40;;
261;SDS011;114;48.260;10.988;2024-02-23T10:20:41;1.63;;;0.50;;
261;SDS011;114;48.260;10.988;2024-02-23T10:23:08;1.73;;;0.70;;
261;SDS011;114;48.260;10.988;2024-02-23T10:25:34;2.07;;;0.60;;
261;SDS011;114;48.260;10.988;2024-02-23T10:28:01;2.33;;;0.70;;
261;SDS011;114;48.260;10.988;2024-02-23T10:30:31;1.57;;;0.70;;
261;SDS011;114;48.260;10.988;2024-02-23T10:32:58;0.90;;;0.40;;
261;SDS011;114;48.260;10.988;2024-02-23T10:35:24;2.17;;;0.60;;
261;SDS011;114;48.260;10.988;2024-02-23T10:37:51;3.93;;;0.53;;
261;SDS011;114;48.260;10.988;2024-02-23T10:40:19;3.17;;;2.20;;
261;SDS011;114;48.260;10.988;2024-02-23T10:42:45;1.70;;;1.23;;
261;SDS011;114;48.260;10.988;2024-02-23T10:45:17;0.80;;;0.37;;
261;SDS011;114;48.260;10.988;2024-02-23T10:47:44;0.90;;;0.40;;
261;SDS011;114;48.260;10.988;2024-02-23T10:50:10;3.10;;;0.40;;
261;SDS011;114;48.260;10.988;2024-02-23T10:52:40;4.43;;;0.87;;
261;SDS011;114;48.260;10.988;2024-02-23T10:55:08;3.13;;;0.47;;
261;SDS011;114;48.260;10.988;2024-02-23T10:57:34;3.50;;;0.60;;
261;SDS011;114;48.260;10.988;2024-02-23T11:00:01;5.30;;;0.60;;
261;SDS011;114;48.260;10.988;2024-02-23T11:02:31;0.93;;;0.60;;
261;SDS011;114;48.260;10.988;2024-02-23T11:05:02;1.70;;;0.57;;
261;SDS011;114;48.260;10.988;2024-02-23T11:07:29;0.70;;;0.40;;
261;SDS011;114;48.260;10.988;2024-02-23T11:10:01;1.50;;;0.57;;
261;SDS011;114;48.260;10.988;2024-02-23T11:15:01;3.40;;;0.40;;
261;SDS011;114;48.260;10.988;2024-02-23T11:17:35;2.40;;;0.50;;
261;SDS011;114;48.260;10.988;2024-02-23T11:20:05;2.57;;;0.60;;
261;SDS011;114;48.260;10.988;2024-02-23T11:22:33;1.63;;;0.47;;
261;SDS011;114;48.260;10.988;2024-02-23T11:25:05;1.33;;;0.77;;
261;SDS011;114;48.260;10.988;2024-02-23T11:27:36;2.90;;;1.00;;
261;SDS011;114;48.260;10.988;2024-02-23T11:30:04;2.57;;;0.87;;
261;SDS011;114;48.260;10.988;2024-02-23T11:35:17;1.27;;;0.53;;
261;SDS011;114;48.260;10.988;2024-02-23T11:40:31;1.33;;;0.50;;
261;SDS011;114;48.260;10.988;2024-02-23T11:42:58;0.90;;;0.40;;
261;SDS011;114;48.260;10.988;2024-02-23T11:45:30;3.73;;;0.60;;
261;SDS011;114;48.260;10.988;2024-02-23T11:47:56;1.43;;;0.70;;
261;SDS011;114;48.260;10.988;2024-02-23T11:50:22;0.80;;;0.53;;
261;SDS011;114;48.260;10.988;2024-02-23T11:52:47;8.20;;;1.37;;
261;SDS011;114;48.260;10.988;2024-02-23T11:55:17;1.57;;;1.00;;
261;SDS011;114;48.260;10.988;2024-02-23T11:57:47;4.70;;;1.03;;
261;SDS011;114;48.260;10.988;2024-02-23T12:00:13;1.07;;;0.60;;
261;SDS011;114;48.260;10.988;2024-02-23T12:02:39;1.00;;;0.57;;
261;SDS011;114;48.260;10.988;2024-02-23T12:05:05;0.90;;;0.60;;
261;SDS011;114;48.260;10.988;2024-02-23T12:07:32;2.00;;;0.60;;
261;SDS011;114;48.260;10.988;2024-02-23T12:10:00;0.40;;;0.33;;
261;SDS011;114;48.260;10.988;2024-02-23T12:12:26;4.40;;;0.50;;
261;SDS011;114;48.260;10.988;2024-02-23T12:14:52;2.33;;;0.87;;
261;SDS011;114;48.260;10.988;2024-02-23T12:17:19;1.00;;;0.70;;
261;SDS011;114;48.260;10.988;2024-02-23T12:19:45;0.40;;;0.40;;
261;SDS011;114;48.260;10.988;2024-02-23T12:22:10;0.43;;;0.43;;
261;SDS011;114;48.260;10.988;2024-02-23T12:24:37;0.97;;;0.30;;
261;SDS011;114;48.260;10.988;2024-02-23T12:27:03;0.40;;;0.30;;
261;SDS011;114;48.260;10.988;2024-02-23T12:29:30;0.77;;;0.30;;
261;SDS011;114;48.260;10.988;2024-02-23T12:32:02;0.50;;;0.40;;
261;SDS011;114;48.260;10.988;2024-02-23T12:34:29;0.97;;;0.60;;
261;SDS011;114;48.260;10.988;2024-02-23T12:36:55;0.33;;;0.33;;
261;SDS011;114;48.260;10.988;2024-02-23T12:44:24;0.50;;;0.50;;
261;SDS011;114;48.260;10.988;2024-02-23T12:46:49;0.50;;;0.50;;
261;SDS011;114;48.260;10.988;2024-02-23T12:49:15;0.60;;;0.47;;
261;SDS011;114;48.260;10.988;2024-02-23T12:51:41;0.80;;;0.63;;
261;SDS011;114;48.260;10.988;2024-02-23T12:54:07;1.43;;;0.40;;
261;SDS011;114;48.260;10.988;2024-02-23T12:56:32;0.50;;;0.40;;
261;SDS011;114;48.260;10.988;2024-02-23T12:58:58;0.50;;;0.40;;
261;SDS011;114;48.260;10.988;2024-02-23T13:01:24;1.37;;;0.50;;
261;SDS011;114;48.260;10.988;2024-02-23T13:03:49;0.40;;;0.40;;
261;SDS011;114;48.260;10.988;2024-02-23T13:06:15;0.50;;;0.40;;
261;SDS011;114;48.260;10.988;2024-02-23T13:08:41;0.40;;;0.30;;
261;SDS011;114;48.260;10.988;2024-02-23T13:11:07;0.40;;;0.30;;
261;SDS011;114;48.260;10.988;2024-02-23T13:13:37;1.03;;;0.30;;
261;SDS011;114;48.260;10.988;2024-02-23T13:16:04;0.40;;;0.30;;
261;SDS011;114;48.260;10.988;2024-02-23T13:18:31;0.50;;;0.40;;
261;SDS011;114;48.260;10.988;2024-02-23T13:20:58;0.30;;;0.30;;
261;SDS011;114;48.260;10.988;2024-02-23T13:23:24;8.93;;;0.70;;
261;SDS011;114;48.260;10.988;2024-02-23T13:25:51;1.03;;;0.30;;
261;SDS011;114;48.260;10.988;2024-02-23T13:28:16;1.90;;;1.00;;
261;SDS011;114;48.260;10.988;2024-02-23T13:30:42;0.70;;;0.70;;
261;SDS011;114;48.260;10.988;2024-02-23T13:33:08;5.63;;;0.50;;
261;SDS011;114;48.260;10.988;2024-02-23T13:35:36;0.80;;;0.40;;
261;SDS011;114;48.260;10.988;2024-02-23T13:38:02;0.83;;;0.40;;
261;SDS011;114;48.260;10.988;2024-02-23T13:40:28;5.23;;;0.50;;
261;SDS011;114;48.260;10.988;2024-02-23T13:42:55;3.57;;;0.63;;
261;SDS011;114;48.260;10.988;2024-02-23T13:45:21;1.83;;;0.80;;
261;SDS011;114;48.260;10.988;2024-02-23T13:48:00;1.57;;;0.50;;
261;SDS011;114;48.260;10.988;2024-02-23T13:50:27;1.03;;;0.40;;
261;SDS011;114;48.260;10.988;2024-02-23T13:53:02;0.70;;;0.50;;
261;SDS011;114;48.260;10.988;2024-02-23T13:55:29;0.77;;;0.40;;
261;SDS011;114;48.260;10.988;2024-02-23T13:57:55;0.30;;;0.30;;
261;SDS011;114;48.260;10.988;2024-02-23T14:00:20;0.47;;;0.40;;
261;SDS011;114;48.260;10.988;2024-02-23T14:02:46;0.93;;;0.30;;
261;SDS011;114;48.260;10.988;2024-02-23T14:05:13;0.50;;;0.30;;
261;SDS011;114;48.260;10.988;2024-02-23T14:07:42;0.40;;;0.40;;
261;SDS011;114;48.260;10.988;2024-02-23T14:10:08;2.13;;;0.40;;
261;SDS011;114;48.260;10.988;2024-02-23T14:12:35;0.43;;;0.40;;
261;SDS011;114;48.260;10.988;2024-02-23T14:15:01;2.10;;;0.40;;
261;SDS011;114;48.260;10.988;2024-02-23T14:17:27;0.50;;;0.50;;
261;SDS011;114;48.260;10.988;2024-02-23T14:19:53;0.90;;;0.50;;
261;SDS011;114;48.260;10.988;2024-02-23T14:22:19;1.33;;;0.57;;
261;SDS011;114;48.260;10.988;2024-02-23T14:24:45;2.87;;;0.40;;
261;SDS011;114;48.260;10.988;2024-02-23T14:27:17;0.30;;;0.30;;
261;SDS011;114;48.260;10.988;2024-02-23T14:29:44;0.30;;;0.30;;
261;SDS011;114;48.260;10.988;2024-02-23T14:32:10;0.40;;;0.40;;
261;SDS011;114;48.260;10.988;2024-02-23T14:34:43;1.63;;;0.40;;
261;SDS011;114;48.260;10.988;2024-02-23T14:37:10;0.80;;;0.60;;
261;SDS011;114;48.260;10.988;2024-02-23T14:39:36;0.60;;;0.60;;
261;SDS011;114;48.260;10.988;2024-02-23T14:42:02;0.50;;;0.50;;
261;SDS011;114;48.260;10.988;2024-02-23T14:44:28;1.00;;;0.53;;
261;SDS011;114;48.260;10.988;2024-02-23T14:46:54;1.33;;;0.50;;
261;SDS011;114;48.260;10.988;2024-02-23T14:49:20;0.40;;;0.40;;
261;SDS011;114;48.260;10.988;2024-02-23T14:51:45;0.50;;;0.43;;
261;SDS011;114;48.260;10.988;2024-02-23T14:54:13;0.40;;;0.30;;
261;SDS011;114;48.260;10.988;2024-02-23T14:56:39;0.60;;;0.40;;
261;SDS011;114;48.260;10.988;2024-02-23T14:59:06;1.33;;;0.50;;
261;SDS011;114;48.260;10.988;2024-02-23T15:01:38;0.47;;;0.40;;
261;SDS011;114;48.260;10.988;2024-02-23T15:04:07;10.27;;;0.83;;
261;SDS011;114;48.260;10.988;2024-02-23T15:06:33;1.23;;;0.50;;
261;SDS011;114;48.260;10.988;2024-02-23T15:09:01;0.90;;;0.40;;
261;SDS011;114;48.260;10.988;2024-02-23T15:11:28;0.70;;;0.70;;
261;SDS011;114;48.260;10.988;2024-02-23T15:13:54;1.80;;;0.70;;
261;SDS011;114;48.260;10.988;2024-02-23T15:16:23;0.47;;;0.40;;
261;SDS011;114;48.260;10.988;2024-02-23T15:18:52;0.50;;;0.40;;
261;SDS011;114;48.260;10.988;2024-02-23T15:21:19;0.57;;;0.57;;
261;SDS011;114;48.260;10.988;2024-02-23T15:23:46;0.70;;;0.43;;
261;SDS011;114;48.260;10.988;2024-02-23T15:26:13;1.80;;;0.50;;
261;SDS011;114;48.260;10.988;2024-02-23T15:28:39;1.17;;;0.30;;
261;SDS011;114;48.260;10.988;2024-02-23T15:31:05;1.00;;;0.60;;
261;SDS011;114;48.260;10.988;2024-02-23T15:33:31;1.07;;;0.30;;
261;SDS011;114;48.260;10.988;2024-02-23T15:35:57;0.40;;;0.30;;
261;SDS011;114;48.260;10.988;2024-02-23T15:38:23;0.30;;;0.30;;
261;SDS011;114;48.260;10.988;2024-02-23T15:40:57;0.70;;;0.40;;
261;SDS011;114;48.260;10.988;2024-02-23T15:43:24;3.70;;;0.40;;
261;SDS011;114;48.260;10.988;2024-02-23T15:45:53;3.50;;;0.40;;
261;SDS011;114;48.260;10.988;2024-02-23T15:48:18;0.30;;;0.30;;
261;SDS011;114;48.260;10.988;2024-02-23T15:50:44;1.37;;;0.30;;